createdAt,value
2019-05-06T00:00:20.349Z,2.10
2019-05-06T00:02:46.585Z,2.00
2019-05-06T00:05:14.411Z,2.00
2019-05-06T00:07:44.409Z,1.90
2019-05-06T00:10:29.109Z,2.00
2019-05-06T00:12:55.314Z,2.00
2019-05-06T00:15:23.449Z,1.90
2019-05-06T00:17:49.844Z,1.80
2019-05-06T00:20:16.033Z,1.90
2019-05-06T00:22:43.598Z,1.90
2019-05-06T00:25:14.078Z,1.80
2019-05-06T00:27:50.807Z,1.70
2019-05-06T00:30:17.038Z,1.70
2019-05-06T00:32:44.261Z,2.00
2019-05-06T00:35:10.685Z,1.90
2019-05-06T00:37:36.906Z,2.00
2019-05-06T00:40:06.235Z,1.80
2019-05-06T00:42:37.222Z,1.80
2019-05-06T00:45:05.040Z,1.70
2019-05-06T00:47:31.945Z,1.80
2019-05-06T00:49:59.487Z,1.80
2019-05-06T00:52:26.109Z,1.70
2019-05-06T00:54:54.516Z,1.80
2019-05-06T00:57:23.386Z,1.70
2019-05-06T00:59:49.946Z,1.40
2019-05-06T01:02:16.096Z,1.40
2019-05-06T01:04:44.488Z,1.40
2019-05-06T01:07:10.233Z,1.40
2019-05-06T01:09:36.458Z,1.40
2019-05-06T01:12:05.204Z,1.50
2019-05-06T01:14:43.578Z,1.40
2019-05-06T01:17:09.955Z,1.30
2019-05-06T01:19:36.023Z,1.30
2019-05-06T01:22:02.196Z,1.10
2019-05-06T01:24:28.296Z,1.10
2019-05-06T01:26:54.418Z,1.20
2019-05-06T01:29:20.795Z,1.30
2019-05-06T01:31:47.012Z,1.40
2019-05-06T01:34:13.766Z,1.40
2019-05-06T01:36:40.074Z,1.60
2019-05-06T01:39:14.647Z,1.70
2019-05-06T01:41:45.389Z,1.60
2019-05-06T01:44:13.605Z,1.40
2019-05-06T01:46:39.483Z,1.30
2019-05-06T01:49:05.682Z,1.50
2019-05-06T01:51:31.756Z,1.50
2019-05-06T01:53:57.906Z,1.50
2019-05-06T01:56:24.288Z,1.50
2019-05-06T01:58:50.469Z,1.30
2019-05-06T02:01:16.710Z,1.20
2019-05-06T02:03:44.243Z,1.30
2019-05-06T02:06:10.934Z,1.30
2019-05-06T02:08:37.053Z,1.40
2019-05-06T02:11:04.129Z,1.40
2019-05-06T02:13:30.408Z,1.30
2019-05-06T02:15:56.499Z,1.30
2019-05-06T02:18:24.368Z,1.50
2019-05-06T02:20:53.782Z,1.40
2019-05-06T02:23:38.736Z,1.20
2019-05-06T02:26:05.780Z,1.10
2019-05-06T02:28:34.341Z,1.10
2019-05-06T02:31:18.678Z,1.00
2019-05-06T02:34:04.919Z,0.90
2019-05-06T02:36:40.811Z,1.00
2019-05-06T02:39:07.201Z,0.90
2019-05-06T02:41:33.966Z,1.10
2019-05-06T02:44:03.566Z,1.10
2019-05-06T02:46:29.031Z,1.00
2019-05-06T02:48:57.168Z,0.90
2019-05-06T02:51:24.484Z,0.80
2019-05-06T02:53:53.568Z,0.70
2019-05-06T02:56:18.888Z,0.80
2019-05-06T02:58:45.110Z,1.00
2019-05-06T03:01:13.579Z,1.10
2019-05-06T03:03:39.236Z,1.10
2019-05-06T03:06:05.486Z,1.10
2019-05-06T03:08:32.844Z,1.00
2019-05-06T03:10:59.233Z,1.00
2019-05-06T03:13:25.489Z,1.10
2019-05-06T03:15:54.059Z,1.20
2019-05-06T03:18:19.841Z,1.00
2019-05-06T03:20:47.873Z,1.00
2019-05-06T03:23:16.118Z,1.00
2019-05-06T03:25:44.301Z,1.00
2019-05-06T03:28:13.101Z,1.10
2019-05-06T03:30:38.704Z,1.00
2019-05-06T03:35:49.977Z,0.90
2019-05-06T03:38:03.882Z,1.30
2019-05-06T03:40:29.395Z,1.20
2019-05-06T03:42:55.496Z,1.10
2019-05-06T03:45:29.283Z,1.20
2019-05-06T03:48:15.413Z,1.20
2019-05-06T03:50:43.983Z,1.30
2019-05-06T03:53:13.797Z,1.30
2019-05-06T03:55:43.764Z,1.30
2019-05-06T03:58:13.446Z,1.40
2019-05-06T04:00:40.093Z,1.40
2019-05-06T04:03:06.205Z,1.30
2019-05-06T04:05:33.569Z,1.40
2019-05-06T04:08:03.465Z,1.50
2019-05-06T04:10:27.995Z,1.50
2019-05-06T04:12:54.727Z,1.50
2019-05-06T04:15:22.968Z,1.60
2019-05-06T04:17:54.337Z,1.50
2019-05-06T04:20:25.477Z,1.60
2019-05-06T04:23:12.963Z,1.80
2019-05-06T04:25:43.190Z,1.70
2019-05-06T04:28:19.543Z,1.60
2019-05-06T04:30:45.809Z,1.60
2019-05-06T04:33:16.513Z,1.70
2019-05-06T04:35:42.825Z,1.80
2019-05-06T04:38:08.708Z,1.90
2019-05-06T04:40:34.954Z,1.80
2019-05-06T04:43:03.586Z,1.80
2019-05-06T04:45:29.726Z,1.70
2019-05-06T04:47:55.924Z,1.70
2019-05-06T04:50:24.171Z,1.70
2019-05-06T04:53:04.743Z,1.80
2019-05-06T04:55:33.592Z,1.90
2019-05-06T04:58:04.060Z,1.90
2019-05-06T05:00:33.140Z,2.00
2019-05-06T05:02:59.402Z,1.90
2019-05-06T05:05:26.086Z,2.00
2019-05-06T05:07:52.966Z,2.10
2019-05-06T05:10:23.278Z,2.10
2019-05-06T05:12:57.055Z,2.20
2019-05-06T05:15:25.082Z,2.20
2019-05-06T05:17:59.339Z,2.10
2019-05-06T05:20:37.003Z,2.10
2019-05-06T05:22:54.083Z,2.10
2019-05-06T05:25:22.187Z,2.20
2019-05-06T05:27:48.511Z,2.20
2019-05-06T05:30:14.756Z,2.10
2019-05-06T05:32:42.864Z,2.10
2019-05-06T05:35:09.298Z,2.30
2019-05-06T05:37:35.496Z,2.20
2019-05-06T05:40:03.046Z,2.40
2019-05-06T05:42:34.091Z,2.40
2019-05-06T05:45:02.525Z,2.50
2019-05-06T05:47:29.030Z,2.60
2019-05-06T05:50:06.491Z,2.70
2019-05-06T05:52:33.042Z,2.80
2019-05-06T05:55:02.711Z,2.80
2019-05-06T05:57:28.943Z,2.80
2019-05-06T05:59:55.422Z,2.90
2019-05-06T06:02:22.493Z,2.90
2019-05-06T06:04:56.874Z,2.80
2019-05-06T06:07:17.176Z,3.00
2019-05-06T06:09:46.121Z,3.10
2019-05-06T06:12:12.616Z,3.30
2019-05-06T06:14:43.180Z,3.30
2019-05-06T06:17:12.858Z,3.30
2019-05-06T06:19:43.716Z,3.40
2019-05-06T06:22:17.508Z,3.50
2019-05-06T06:24:43.699Z,3.70
2019-05-06T06:27:12.454Z,3.70
2019-05-06T06:29:38.711Z,3.60
2019-05-06T06:32:15.892Z,3.70
2019-05-06T06:35:10.760Z,3.90
2019-05-06T06:37:33.588Z,3.80
2019-05-06T06:40:02.584Z,4.10
2019-05-06T06:42:28.999Z,4.10
2019-05-06T06:44:55.426Z,4.20
2019-05-06T06:47:22.471Z,4.20
2019-05-06T06:49:48.893Z,4.20
2019-05-06T06:52:15.222Z,4.50
2019-05-06T06:54:43.626Z,4.70
2019-05-06T06:57:12.725Z,4.90
2019-05-06T06:59:52.237Z,5.20
2019-05-06T07:02:37.365Z,5.20
2019-05-06T07:05:24.502Z,5.30
2019-05-06T07:07:47.327Z,5.50
2019-05-06T07:10:32.417Z,5.50
2019-05-06T07:12:58.811Z,5.50
2019-05-06T07:15:24.984Z,5.40
2019-05-06T07:17:52.497Z,5.50
2019-05-06T07:20:23.235Z,5.80
2019-05-06T07:22:49.340Z,5.80
2019-05-06T07:25:15.462Z,6.10
2019-05-06T07:27:42.065Z,6.50
2019-05-06T07:30:09.402Z,6.70
2019-05-06T07:32:35.493Z,6.90
2019-05-06T07:35:02.480Z,7.00
2019-05-06T07:37:28.762Z,7.20
2019-05-06T07:39:55.143Z,7.20
2019-05-06T07:42:23.238Z,7.30
2019-05-06T07:44:54.232Z,7.40
2019-05-06T07:47:28.509Z,7.40
2019-05-06T07:49:54.679Z,7.50
2019-05-06T07:52:22.890Z,7.40
2019-05-06T07:54:48.831Z,7.50
2019-05-06T07:57:14.927Z,7.50
2019-05-06T07:59:42.900Z,7.30
2019-05-06T08:02:09.156Z,7.30
2019-05-06T08:04:35.334Z,7.30
2019-05-06T08:07:03.098Z,7.40
2019-05-06T08:09:29.581Z,7.50
2019-05-06T08:11:55.706Z,7.50
2019-05-06T08:14:24.045Z,7.60
2019-05-06T08:16:58.344Z,7.60
2019-05-06T08:19:24.444Z,7.60
2019-05-06T08:21:52.566Z,7.70
2019-05-06T08:24:18.972Z,7.70
2019-05-06T08:26:45.040Z,7.70
2019-05-06T08:29:12.148Z,7.70
2019-05-06T08:31:38.921Z,7.80
2019-05-06T08:34:05.047Z,8.10
2019-05-06T08:36:33.245Z,8.20
2019-05-06T08:39:02.780Z,8.10
2019-05-06T08:41:29.083Z,8.20
2019-05-06T08:43:55.654Z,8.30
2019-05-06T08:46:23.504Z,8.30
2019-05-06T08:48:52.352Z,8.30
2019-05-06T08:51:22.311Z,8.40
2019-05-06T08:53:49.850Z,8.50
2019-05-06T08:56:18.051Z,8.40
2019-05-06T08:58:44.834Z,8.40
2019-05-06T09:01:13.466Z,8.10
2019-05-06T09:03:42.168Z,8.10
2019-05-06T09:06:07.633Z,8.10
2019-05-06T09:08:33.847Z,7.90
2019-05-06T09:11:00.078Z,7.80
2019-05-06T09:13:26.225Z,7.60
2019-05-06T09:15:52.650Z,7.50
2019-05-06T09:18:18.948Z,7.60
2019-05-06T09:20:46.513Z,7.70
2019-05-06T09:23:12.958Z,7.60
2019-05-06T09:25:39.063Z,7.70
2019-05-06T09:28:13.274Z,7.70
2019-05-06T09:31:01.683Z,7.80
2019-05-06T09:33:29.823Z,7.80
2019-05-06T09:35:56.177Z,7.80
2019-05-06T09:38:22.818Z,7.80
2019-05-06T09:40:49.219Z,8.20
2019-05-06T09:43:15.326Z,8.40
2019-05-06T09:45:42.475Z,8.30
2019-05-06T09:48:12.810Z,8.20
2019-05-06T09:50:45.420Z,8.40
2019-05-06T09:53:13.105Z,8.80
2019-05-06T09:55:59.911Z,8.90
2019-05-06T09:58:26.113Z,9.20
2019-05-06T10:00:54.171Z,9.80
2019-05-06T10:03:22.509Z,10.00
2019-05-06T10:05:48.563Z,10.20
2019-05-06T10:08:14.881Z,11.10
2019-05-06T10:10:53.687Z,11.10
2019-05-06T10:13:09.342Z,11.40
2019-05-06T10:15:35.774Z,11.40
2019-05-06T10:18:08.604Z,11.20
2019-05-06T10:20:36.430Z,11.00
2019-05-06T10:23:02.866Z,10.10
2019-05-06T10:25:29.015Z,10.30
2019-05-06T10:27:57.331Z,10.30
2019-05-06T10:30:23.541Z,10.20
2019-05-06T10:32:52.839Z,10.50
2019-05-06T10:35:19.447Z,10.10
2019-05-06T10:37:49.365Z,10.50
2019-05-06T10:40:25.254Z,10.40
2019-05-06T10:43:10.315Z,11.00
2019-05-06T10:45:36.448Z,11.10
2019-05-06T10:48:02.831Z,10.80
2019-05-06T10:50:30.959Z,10.40
2019-05-06T10:53:04.839Z,10.30
2019-05-06T10:55:32.513Z,10.60
2019-05-06T10:57:58.857Z,10.90
2019-05-06T11:00:25.425Z,11.30
2019-05-06T11:02:56.224Z,11.30
2019-05-06T11:05:22.492Z,11.40
2019-05-06T11:07:48.801Z,11.80
2019-05-06T11:10:23.906Z,12.20
2019-05-06T11:12:43.698Z,12.60
2019-05-06T11:15:12.212Z,12.60
2019-05-06T11:17:38.069Z,12.20
2019-05-06T11:20:06.892Z,11.60
2019-05-06T11:22:32.827Z,11.50
2019-05-06T11:24:59.125Z,11.30
2019-05-06T11:27:32.098Z,11.00
2019-05-06T11:29:55.491Z,10.80
2019-05-06T11:32:45.243Z,10.50
2019-05-06T11:35:16.517Z,10.30
2019-05-06T11:37:50.216Z,10.20
2019-05-06T11:40:16.651Z,10.00
2019-05-06T11:42:43.726Z,10.00
2019-05-06T11:45:09.631Z,9.90
2019-05-06T11:47:36.245Z,9.90
2019-05-06T11:50:05.228Z,10.00
2019-05-06T11:52:31.417Z,10.00
2019-05-06T11:54:57.563Z,10.20
2019-05-06T11:57:24.074Z,10.10
2019-05-06T11:59:52.586Z,10.10
2019-05-06T12:02:20.128Z,9.80
2019-05-06T12:04:46.237Z,9.90
2019-05-06T12:07:15.586Z,10.10
2019-05-06T12:09:40.432Z,10.40
2019-05-06T12:12:06.662Z,10.50
2019-05-06T12:14:32.784Z,10.60
2019-05-06T12:16:59.117Z,10.60
2019-05-06T12:19:25.241Z,10.60
2019-05-06T12:21:51.448Z,10.80
2019-05-06T12:24:17.640Z,10.50
2019-05-06T12:26:44.200Z,10.70
2019-05-06T12:29:12.510Z,11.00
2019-05-06T12:31:38.436Z,11.20
2019-05-06T12:34:04.633Z,11.30
2019-05-06T12:36:52.843Z,11.10
2019-05-06T12:39:22.434Z,11.10
2019-05-06T12:41:56.022Z,11.30
2019-05-06T12:44:23.089Z,10.80
2019-05-06T12:47:03.585Z,10.70
2019-05-06T12:49:32.381Z,10.80
2019-05-06T12:51:57.831Z,10.90
2019-05-06T12:54:24.022Z,10.90
2019-05-06T12:56:51.882Z,10.80
2019-05-06T12:59:18.182Z,10.60
2019-05-06T13:01:45.901Z,10.50
2019-05-06T13:04:13.608Z,10.50
2019-05-06T13:06:45.835Z,10.40
2019-05-06T13:09:08.254Z,10.40
2019-05-06T13:11:35.060Z,10.60
2019-05-06T13:14:04.084Z,10.80
2019-05-06T13:16:33.204Z,10.90
2019-05-06T13:18:59.340Z,11.20
2019-05-06T13:21:25.955Z,11.10
2019-05-06T13:23:54.344Z,11.10
2019-05-06T13:26:22.241Z,11.00
2019-05-06T13:28:53.018Z,11.00
2019-05-06T13:31:21.696Z,11.10
2019-05-06T13:33:54.555Z,11.10
2019-05-06T13:36:22.635Z,11.50
2019-05-06T13:38:53.445Z,11.50
2019-05-06T13:41:18.454Z,11.30
2019-05-06T13:43:47.052Z,11.70
2019-05-06T13:46:18.279Z,11.90
2019-05-06T13:48:53.167Z,11.90
2019-05-06T13:51:24.450Z,12.40
2019-05-06T13:53:52.871Z,12.80
2019-05-06T13:56:19.558Z,12.70
2019-05-06T13:58:49.582Z,12.50
2019-05-06T14:01:17.964Z,12.40
2019-05-06T14:03:44.430Z,12.40
2019-05-06T14:06:12.261Z,12.00
2019-05-06T14:08:42.142Z,12.00
2019-05-06T14:11:08.639Z,11.90
2019-05-06T14:13:35.547Z,11.80
2019-05-06T14:16:03.988Z,11.90
2019-05-06T14:18:30.458Z,11.70
2019-05-06T14:20:56.785Z,11.40
2019-05-06T14:23:22.896Z,11.30
2019-05-06T14:26:08.335Z,11.30
2019-05-06T14:28:36.567Z,11.30
2019-05-06T14:31:04.820Z,11.10
2019-05-06T14:33:32.311Z,11.00
2019-05-06T14:35:58.978Z,10.90
2019-05-06T14:38:27.936Z,11.00
2019-05-06T14:41:08.125Z,11.00
2019-05-06T14:43:34.063Z,11.20
2019-05-06T14:46:01.101Z,11.30
2019-05-06T14:48:27.406Z,11.40
2019-05-06T14:50:57.205Z,11.40
2019-05-06T14:53:23.909Z,11.50
2019-05-06T14:56:32.039Z,11.70
2019-05-06T14:59:08.553Z,11.80
2019-05-06T15:01:36.765Z,12.00
2019-05-06T15:04:04.279Z,12.10
2019-05-06T15:06:33.113Z,12.10
2019-05-06T15:08:59.736Z,12.00
2019-05-06T15:11:26.440Z,12.00
2019-05-06T15:13:55.238Z,11.90
2019-05-06T15:16:22.039Z,11.70
2019-05-06T15:18:48.926Z,11.50
2019-05-06T15:21:36.206Z,11.50
2019-05-06T15:23:44.058Z,11.40
2019-05-06T15:26:12.255Z,11.40
2019-05-06T15:28:39.090Z,11.30
2019-05-06T15:31:07.170Z,11.30
2019-05-06T15:33:35.235Z,11.30
2019-05-06T15:36:09.407Z,11.30
2019-05-06T15:38:35.599Z,11.30
2019-05-06T15:41:01.676Z,11.30
2019-05-06T15:43:27.810Z,11.20
2019-05-06T15:45:53.937Z,11.20
2019-05-06T15:48:22.068Z,11.20
2019-05-06T15:50:48.535Z,11.20
2019-05-06T15:53:15.445Z,11.20
2019-05-06T15:55:43.670Z,11.10
2019-05-06T15:58:09.706Z,11.30
2019-05-06T16:00:35.801Z,11.30
2019-05-06T16:03:02.595Z,11.30
2019-05-06T16:05:30.795Z,11.10
2019-05-06T16:07:56.908Z,11.10
2019-05-06T16:10:23.322Z,11.10
2019-05-06T16:12:49.427Z,11.00
2019-05-06T16:15:16.378Z,11.10
2019-05-06T16:17:42.840Z,11.10
2019-05-06T16:20:09.498Z,11.00
2019-05-06T16:22:35.651Z,10.90
2019-05-06T16:25:09.460Z,11.00
2019-05-06T16:27:35.607Z,10.90
2019-05-06T16:30:03.980Z,10.90
2019-05-06T16:32:30.093Z,10.90
2019-05-06T16:34:56.208Z,10.90
2019-05-06T16:37:22.472Z,10.90
2019-05-06T16:39:48.668Z,10.80
2019-05-06T16:42:14.873Z,10.80
2019-05-06T16:44:45.178Z,10.70
2019-05-06T16:47:09.045Z,10.60
2019-05-06T16:49:35.239Z,10.60
2019-05-06T16:52:02.501Z,10.70
2019-05-06T16:54:29.473Z,10.80
2019-05-06T16:57:03.504Z,10.70
2019-05-06T16:59:29.685Z,10.60
2019-05-06T17:01:57.240Z,10.70
2019-05-06T17:04:28.107Z,10.70
2019-05-06T17:06:54.203Z,10.70
2019-05-06T17:09:23.847Z,10.80
2019-05-06T17:11:48.935Z,10.80
2019-05-06T17:14:15.685Z,10.80
2019-05-06T17:16:42.555Z,10.70
2019-05-06T17:19:09.188Z,10.70
2019-05-06T17:21:35.747Z,10.60
2019-05-06T17:24:02.649Z,10.60
2019-05-06T17:26:29.195Z,10.50
2019-05-06T17:28:57.980Z,10.50
2019-05-06T17:31:42.369Z,10.50
2019-05-06T17:34:12.797Z,10.50
2019-05-06T17:36:41.975Z,10.50
2019-05-06T17:39:10.957Z,10.50
2019-05-06T17:41:45.844Z,10.40
2019-05-06T17:44:07.610Z,10.50
2019-05-06T17:46:36.098Z,10.50
2019-05-06T17:49:12.806Z,10.40
2019-05-06T17:51:42.544Z,10.30
2019-05-06T17:54:09.563Z,10.20
2019-05-06T17:56:36.349Z,10.10
2019-05-06T17:59:03.827Z,10.10
2019-05-06T18:01:33.138Z,10.10
2019-05-06T18:04:02.093Z,10.10
2019-05-06T18:06:28.681Z,10.10
2019-05-06T18:08:55.111Z,10.00
2019-05-06T18:11:22.441Z,10.00
2019-05-06T18:13:49.025Z,10.00
2019-05-06T18:16:15.509Z,9.90
2019-05-06T18:18:41.708Z,9.90
2019-05-06T18:21:07.936Z,9.90
2019-05-06T18:23:34.177Z,9.90
2019-05-06T18:26:03.169Z,9.80
2019-05-06T18:28:29.561Z,9.80
2019-05-06T18:30:56.112Z,9.80
2019-05-06T18:33:22.621Z,9.80
2019-05-06T18:35:49.112Z,9.70
2019-05-06T18:38:15.779Z,9.70
2019-05-06T18:40:42.474Z,9.70
2019-05-06T18:43:09.182Z,9.60
2019-05-06T18:45:35.979Z,9.60
2019-05-06T18:48:02.879Z,9.60
2019-05-06T18:50:31.068Z,9.60
2019-05-06T18:52:57.734Z,9.50
2019-05-06T18:55:24.258Z,9.40
2019-05-06T18:57:53.670Z,9.40
2019-05-06T19:00:22.259Z,9.40
2019-05-06T19:02:48.845Z,9.30
2019-05-06T19:05:23.055Z,9.30
2019-05-06T19:07:49.033Z,9.20
2019-05-06T19:10:18.196Z,9.30
2019-05-06T19:12:44.901Z,9.20
2019-05-06T19:15:12.618Z,9.10
2019-05-06T19:17:39.381Z,9.10
2019-05-06T19:20:07.239Z,9.10
2019-05-06T19:22:33.945Z,9.10
2019-05-06T19:25:03.598Z,9.10
2019-05-06T19:27:30.017Z,9.00
2019-05-06T19:29:56.868Z,9.00
2019-05-06T19:32:25.455Z,9.00
2019-05-06T19:34:52.967Z,8.90
2019-05-06T19:37:19.600Z,8.80
2019-05-06T19:39:46.484Z,8.80
2019-05-06T19:42:13.141Z,8.70
2019-05-06T19:44:39.948Z,8.70
2019-05-06T19:47:06.418Z,8.70
2019-05-06T19:49:33.046Z,8.70
2019-05-06T19:51:59.775Z,8.80
2019-05-06T19:54:26.385Z,8.80
2019-05-06T19:56:53.114Z,8.80
2019-05-06T19:59:19.705Z,8.70
2019-05-06T20:01:46.616Z,8.60
2019-05-06T20:04:13.364Z,8.60
2019-05-06T20:06:44.790Z,8.50
2019-05-06T20:09:29.992Z,8.50
2019-05-06T20:11:58.584Z,8.30
2019-05-06T20:14:25.961Z,8.10
2019-05-06T20:16:52.981Z,8.10
2019-05-06T20:19:29.757Z,8.00
2019-05-06T20:21:50.140Z,7.90
2019-05-06T20:24:17.088Z,7.90
2019-05-06T20:26:43.377Z,7.90
2019-05-06T20:29:09.947Z,7.70
2019-05-06T20:31:36.612Z,7.70
2019-05-06T20:34:03.041Z,7.60
2019-05-06T20:36:29.370Z,7.50
2019-05-06T20:38:55.694Z,7.30
2019-05-06T20:41:23.661Z,7.30
2019-05-06T20:43:49.798Z,7.20
2019-05-06T20:46:15.895Z,7.20
2019-05-06T20:48:42.257Z,7.10
2019-05-06T20:51:08.594Z,7.00
2019-05-06T20:53:34.993Z,6.90
2019-05-06T20:56:02.782Z,6.90
2019-05-06T20:58:29.089Z,6.80
2019-05-06T21:00:55.245Z,6.70
2019-05-06T21:03:22.111Z,6.60
2019-05-06T21:05:48.580Z,6.60
2019-05-06T21:08:14.749Z,6.50
2019-05-06T21:10:42.532Z,6.40
2019-05-06T21:13:08.909Z,6.30
2019-05-06T21:15:34.996Z,6.20
2019-05-06T21:18:03.763Z,6.20
2019-05-06T21:20:29.134Z,6.20
2019-05-06T21:22:55.213Z,6.10
2019-05-06T21:25:22.636Z,6.00
2019-05-06T21:27:48.907Z,5.90
2019-05-06T21:30:15.323Z,5.80
2019-05-06T21:32:42.678Z,5.80
2019-05-06T21:35:09.441Z,5.70
2019-05-06T21:37:35.624Z,5.60
2019-05-06T21:40:02.747Z,5.50
2019-05-06T21:42:29.163Z,5.50
2019-05-06T21:44:55.257Z,5.30
2019-05-06T21:47:21.342Z,5.30
2019-05-06T21:49:47.525Z,5.30
2019-05-06T21:52:13.696Z,5.40
2019-05-06T21:54:39.809Z,5.40
2019-05-06T21:57:05.962Z,5.30
2019-05-06T21:59:32.168Z,5.30
2019-05-06T22:01:58.495Z,5.30
2019-05-06T22:04:24.573Z,5.30
2019-05-06T22:06:52.399Z,5.30
2019-05-06T22:09:18.896Z,5.20
2019-05-06T22:11:44.975Z,5.10
2019-05-06T22:14:12.318Z,5.30
2019-05-06T22:16:38.733Z,5.30
2019-05-06T22:19:04.822Z,5.20
2019-05-06T22:21:32.026Z,5.20
2019-05-06T22:24:04.182Z,5.10
2019-05-06T22:26:28.766Z,5.10
2019-05-06T22:28:55.130Z,5.00
2019-05-06T22:31:24.294Z,5.10
2019-05-06T22:33:50.422Z,5.00
2019-05-06T22:36:16.525Z,5.00
2019-05-06T22:38:44.270Z,5.00
2019-05-06T22:41:11.076Z,4.90
2019-05-06T22:43:37.288Z,5.00
2019-05-06T22:46:03.690Z,5.00
2019-05-06T22:48:29.887Z,4.80
2019-05-06T22:50:56.032Z,4.70
2019-05-06T22:53:24.752Z,4.70
2019-05-06T22:55:50.300Z,4.50
2019-05-06T22:58:16.494Z,4.40
2019-05-06T23:00:44.537Z,4.40
2019-05-06T23:03:15.612Z,4.50
2019-05-06T23:05:42.292Z,4.50
2019-05-06T23:08:08.649Z,4.40
2019-05-06T23:10:34.826Z,4.40
2019-05-06T23:13:02.990Z,4.40
2019-05-06T23:15:29.004Z,4.30
2019-05-06T23:17:55.189Z,4.20
2019-05-06T23:20:24.238Z,4.10
2019-05-06T23:22:49.318Z,4.10
2019-05-06T23:25:15.392Z,4.00
2019-05-06T23:27:43.892Z,4.00
2019-05-06T23:30:09.610Z,3.90
2019-05-06T23:32:35.739Z,3.80
2019-05-06T23:35:03.406Z,3.80
2019-05-06T23:37:29.436Z,3.80
2019-05-06T23:40:34.992Z,3.70
2019-05-06T23:43:38.514Z,3.70
2019-05-06T23:46:42.274Z,3.60
2019-05-06T23:49:45.879Z,3.50
2019-05-06T23:52:51.884Z,3.40
2019-05-06T23:55:55.489Z,3.20
2019-05-06T23:58:22.486Z,3.30
